Time;durP1;ratioP1;P1;durP2;ratioP2;P2;SDS_P1;SDS_P2;PMS_P1;PMS_P2;Temp;Humidity;BMP_temperature;BMP_pressure;BME280_temperature;BME280_humidity;BME280_pressure;Samples;Min_cycle;Max_cycle;Signal;HPM_P1;HPM_P2
2021/11/29 00:00:58;;;;;;;;;;;6.20;64.30;;;;;;4360455;32;20415;-45
2021/11/29 00:03:26;;;;;;;;;;;6.20;64.30;;;;;;4360385;32;19978;-45
2021/11/29 00:05:52;;;;;;;;;;;6.20;64.30;;;;;;4360478;32;19975;-47
2021/11/29 00:08:18;;;;;;;;;;;6.20;64.30;;;;;;4360589;32;19968;-50
2021/11/29 00:10:44;;;;;;;;;;;6.20;64.40;;;;;;4360620;32;19958;-42
2021/11/29 00:13:10;;;;;;;;;;;6.20;64.40;;;;;;4360284;32;19975;-41
2021/11/29 00:15:36;;;;;;;;;;;6.20;64.40;;;;;;4360800;32;20091;-45
2021/11/29 00:18:03;;;;;;;;;;;6.20;65.00;;;;;;4360771;32;20056;-45
2021/11/29 00:20:29;;;;;;;;;;;6.20;64.40;;;;;;4367676;32;19966;-44
2021/11/29 00:22:56;;;;;;;;;;;6.20;64.40;;;;;;4375297;32;19986;-45
2021/11/29 00:25:22;;;;;;;;;;;6.30;64.40;;;;;;4375520;32;19981;-45
2021/11/29 00:27:48;;;;;;;;;;;6.20;64.30;;;;;;4360891;32;20516;-44
2021/11/29 00:30:14;;;;;;;;;;;6.20;64.30;;;;;;4361278;32;20063;-42
2021/11/29 00:32:41;;;;;;;;;;;6.20;64.30;;;;;;4375291;32;20054;-43
2021/11/29 00:35:07;;;;;;;;;;;6.20;64.20;;;;;;4375289;32;19965;-44
2021/11/29 00:37:34;;;;;;;;;;;6.20;64.10;;;;;;4374909;32;19966;-44
2021/11/29 00:40:00;;;;;;;;;;;6.20;64.10;;;;;;4361250;32;20029;-45
2021/11/29 00:42:27;;;;;;;;;;;6.20;64.20;;;;;;4374920;32;20124;-42
2021/11/29 00:44:54;;;;;;;;;;;6.20;64.80;;;;;;4374950;32;19962;-44
2021/11/29 00:47:20;;;;;;;;;;;6.10;64.10;;;;;;4375141;32;19981;-44
2021/11/29 00:49:46;;;;;;;;;;;6.20;64.30;;;;;;4374666;32;20090;-42
2021/11/29 00:52:12;;;;;;;;;;;6.10;64.30;;;;;;4360609;32;19979;-45
2021/11/29 00:54:38;;;;;;;;;;;6.10;64.30;;;;;;4374498;32;19970;-43
2021/11/29 00:57:05;;;;;;;;;;;6.10;64.30;;;;;;4374477;32;20154;-44
2021/11/29 00:59:31;;;;;;;;;;;6.10;64.30;;;;;;4374810;32;19961;-43
2021/11/29 01:01:57;;;;;;;;;;;6.10;64.30;;;;;;4374359;32;20063;-47
2021/11/29 01:04:23;;;;;;;;;;;6.10;64.30;;;;;;4374894;32;20114;-45
2021/11/29 01:06:50;;;;;;;;;;;6.10;64.30;;;;;;4374801;32;20367;-48
2021/11/29 01:09:16;;;;;;;;;;;6.10;64.30;;;;;;4374845;32;19973;-42
2021/11/29 01:11:42;;;;;;;;;;;6.10;64.20;;;;;;4374889;32;19966;-46
2021/11/29 01:14:09;;;;;;;;;;;6.10;64.20;;;;;;4374569;32;19962;-47
2021/11/29 01:16:35;;;;;;;;;;;6.10;64.20;;;;;;4374696;32;19999;-45
2021/11/29 01:19:01;;;;;;;;;;;6.10;64.20;;;;;;4374403;32;20462;-47
2021/11/29 01:21:27;;;;;;;;;;;6.10;64.20;;;;;;4360477;32;20434;-44
2021/11/29 01:23:53;;;;;;;;;;;6.10;64.20;;;;;;4359597;32;19950;-44
2021/11/29 01:26:19;;;;;;;;;;;6.10;64.10;;;;;;4359002;32;19958;-46
2021/11/29 01:28:45;;;;;;;;;;;6.10;64.10;;;;;;4359818;32;20482;-45
2021/11/29 01:31:12;;;;;;;;;;;6.10;64.10;;;;;;4359056;32;20367;-46
2021/11/29 01:33:38;;;;;;;;;;;6.10;64.20;;;;;;4359059;32;20016;-48
2021/11/29 01:36:04;;;;;;;;;;;6.10;64.20;;;;;;4358937;32;20415;-48
2021/11/29 01:38:30;;;;;;;;;;;6.10;64.20;;;;;;4358878;32;20044;-42
2021/11/29 01:40:57;;;;;;;;;;;6.10;64.50;;;;;;4359069;32;19992;-46
2021/11/29 01:43:23;;;;;;;;;;;6.10;64.20;;;;;;4359275;32;19992;-44
2021/11/29 01:45:51;;;;;;;;;;;6.10;64.20;;;;;;4358825;32;19978;-44
2021/11/29 01:48:17;;;;;;;;;;;6.10;64.30;;;;;;4359257;32;20036;-45
2021/11/29 01:50:47;;;;;;;;;;;6.00;64.20;;;;;;4359372;32;19959;-44
2021/11/29 01:53:13;;;;;;;;;;;6.00;64.20;;;;;;4358435;32;20438;-47
2021/11/29 01:55:40;;;;;;;;;;;6.00;64.30;;;;;;4358762;32;20049;-48
2021/11/29 01:58:06;;;;;;;;;;;6.00;64.40;;;;;;4358801;32;19973;-46
2021/11/29 02:00:34;;;;;;;;;;;5.90;64.40;;;;;;4358812;32;19984;-44
2021/11/29 02:03:00;;;;;;;;;;;5.90;64.40;;;;;;4358436;32;19962;-47
2021/11/29 02:05:26;;;;;;;;;;;5.90;64.50;;;;;;4358954;32;19983;-47
2021/11/29 02:07:53;;;;;;;;;;;5.90;64.50;;;;;;4358571;32;20066;-46
2021/11/29 02:10:20;;;;;;;;;;;5.90;64.60;;;;;;4358972;32;19969;-46
2021/11/29 02:12:47;;;;;;;;;;;5.90;64.60;;;;;;4359158;32;19962;-46
2021/11/29 02:15:14;;;;;;;;;;;6.00;64.70;;;;;;4344277;32;20503;-46
2021/11/29 02:17:41;;;;;;;;;;;6.00;64.60;;;;;;4358510;32;19997;-46
2021/11/29 02:20:08;;;;;;;;;;;6.00;64.70;;;;;;4364109;32;20395;-45
2021/11/29 02:22:34;;;;;;;;;;;6.00;64.50;;;;;;4373534;32;19998;-47
2021/11/29 02:25:00;;;;;;;;;;;6.00;64.50;;;;;;4373154;32;19954;-47
2021/11/29 02:27:26;;;;;;;;;;;6.10;64.50;;;;;;4359254;32;20075;-47
2021/11/29 02:29:54;;;;;;;;;;;6.10;64.40;;;;;;4373284;32;20434;-48
2021/11/29 02:32:20;;;;;;;;;;;6.10;64.40;;;;;;4373789;32;19966;-47
2021/11/29 02:34:47;;;;;;;;;;;6.10;64.30;;;;;;4373843;32;20038;-47
2021/11/29 02:37:13;;;;;;;;;;;6.10;64.30;;;;;;4372963;32;19968;-48
2021/11/29 02:39:41;;;;;;;;;;;6.10;64.40;;;;;;4372903;32;20047;-47
2021/11/29 02:42:08;;;;;;;;;;;6.10;64.40;;;;;;4373235;32;20490;-48
2021/11/29 02:44:35;;;;;;;;;;;6.10;64.40;;;;;;4373017;32;19970;-50
2021/11/29 02:47:01;;;;;;;;;;;6.10;64.40;;;;;;4373062;32;19961;-49
2021/11/29 02:49:27;;;;;;;;;;;6.10;64.30;;;;;;4373126;32;19977;-48
2021/11/29 02:51:58;;;;;;;;;;;6.10;64.30;;;;;;4373474;32;19978;-45
2021/11/29 02:54:27;;;;;;;;;;;6.10;64.30;;;;;;4372821;32;19978;-45
2021/11/29 02:56:58;;;;;;;;;;;6.10;64.30;;;;;;4373439;32;19962;-42
2021/11/29 02:59:28;;;;;;;;;;;6.10;64.30;;;;;;4373035;32;20429;-46
2021/11/29 03:02:06;;;;;;;;;;;6.10;64.30;;;;;;4372894;32;19962;-42
2021/11/29 03:04:33;;;;;;;;;;;6.10;64.30;;;;;;4372863;32;20477;-46
2021/11/29 03:06:59;;;;;;;;;;;6.10;64.20;;;;;;4372982;32;20363;-41
2021/11/29 03:09:26;;;;;;;;;;;6.10;64.20;;;;;;4373288;32;19974;-44
2021/11/29 03:11:53;;;;;;;;;;;6.10;64.20;;;;;;4373107;32;20045;-45
2021/11/29 03:14:19;;;;;;;;;;;6.10;64.30;;;;;;4359448;32;19970;-44
2021/11/29 03:16:46;;;;;;;;;;;6.10;64.30;;;;;;4358974;32;19989;-44
2021/11/29 03:19:12;;;;;;;;;;;6.10;64.40;;;;;;4358455;32;19993;-44
2021/11/29 03:21:38;;;;;;;;;;;6.10;64.40;;;;;;4357445;32;20069;-44
2021/11/29 03:24:06;;;;;;;;;;;6.10;64.50;;;;;;4357898;32;19959;-44
2021/11/29 03:26:33;;;;;;;;;;;6.10;64.40;;;;;;4358467;32;19979;-46
2021/11/29 03:29:01;;;;;;;;;;;6.10;64.40;;;;;;4357480;32;19964;-43
2021/11/29 03:31:29;;;;;;;;;;;6.10;64.40;;;;;;4343593;32;20414;-44
2021/11/29 03:33:57;;;;;;;;;;;6.20;64.50;;;;;;4357806;32;20391;-46
2021/11/29 03:36:27;;;;;;;;;;;6.20;64.50;;;;;;4358221;32;20045;-43
2021/11/29 03:38:53;;;;;;;;;;;6.20;64.50;;;;;;4357811;32;20405;-44
2021/11/29 03:41:19;;;;;;;;;;;6.20;64.50;;;;;;4343873;32;20439;-44
2021/11/29 03:43:45;;;;;;;;;;;6.20;64.50;;;;;;4358023;32;20011;-45
2021/11/29 03:46:12;;;;;;;;;;;6.20;64.50;;;;;;4357976;32;20417;-46
2021/11/29 03:48:38;;;;;;;;;;;6.20;64.60;;;;;;4357834;32;20430;-44
2021/11/29 03:51:04;;;;;;;;;;;6.20;64.70;;;;;;4360541;32;20386;-45
2021/11/29 03:53:31;;;;;;;;;;;6.20;64.60;;;;;;4360386;32;20046;-43
2021/11/29 03:55:57;;;;;;;;;;;6.20;64.60;;;;;;4360497;32;19966;-44
2021/11/29 03:58:23;;;;;;;;;;;6.30;64.60;;;;;;4360473;32;20538;-45
2021/11/29 04:00:50;;;;;;;;;;;6.30;64.60;;;;;;4360610;32;20357;-45
2021/11/29 04:03:16;;;;;;;;;;;6.40;64.50;;;;;;4360519;32;20354;-47
2021/11/29 04:05:42;;;;;;;;;;;6.40;64.50;;;;;;4360287;32;20614;-43
2021/11/29 04:08:08;;;;;;;;;;;6.40;64.40;;;;;;4328192;33;20041;-46
2021/11/29 04:10:34;;;;;;;;;;;6.40;64.10;;;;;;4328897;33;20003;-43
2021/11/29 04:13:01;;;;;;;;;;;6.40;64.00;;;;;;4328815;33;19981;-46
2021/11/29 04:15:27;;;;;;;;;;;6.40;64.00;;;;;;4316493;33;20105;-44
2021/11/29 04:17:54;;;;;;;;;;;6.40;64.10;;;;;;4315835;33;19973;-45
2021/11/29 04:20:20;;;;;;;;;;;6.40;64.10;;;;;;4328458;33;19971;-46
2021/11/29 04:22:47;;;;;;;;;;;6.40;64.00;;;;;;4327927;33;19978;-43
2021/11/29 04:25:18;;;;;;;;;;;6.40;63.90;;;;;;4316109;33;20058;-46
2021/11/29 04:27:46;;;;;;;;;;;6.40;63.90;;;;;;4327742;33;19974;-44
2021/11/29 04:30:16;;;;;;;;;;;6.30;63.90;;;;;;4328104;33;19970;-45
2021/11/29 04:32:43;;;;;;;;;;;6.40;64.00;;;;;;4328479;33;20434;-47
2021/11/29 04:35:09;;;;;;;;;;;6.40;64.00;;;;;;4327750;33;19983;-46
2021/11/29 04:37:36;;;;;;;;;;;6.40;64.00;;;;;;4328164;33;20121;-44
2021/11/29 04:40:03;;;;;;;;;;;6.40;64.00;;;;;;4342183;32;19970;-46
2021/11/29 04:42:29;;;;;;;;;;;6.40;63.90;;;;;;4345929;32;19958;-45
2021/11/29 04:44:56;;;;;;;;;;;6.40;63.90;;;;;;4360334;32;20027;-44
2021/11/29 04:47:22;;;;;;;;;;;6.40;63.90;;;;;;4359919;32;19982;-46
2021/11/29 04:49:48;;;;;;;;;;;6.40;63.90;;;;;;4359930;32;20649;-47
2021/11/29 04:52:15;;;;;;;;;;;6.40;64.00;;;;;;4359406;32;20041;-46
2021/11/29 04:54:41;;;;;;;;;;;6.40;64.00;;;;;;4357141;32;20050;-47
2021/11/29 04:57:07;;;;;;;;;;;6.50;64.00;;;;;;4360949;32;20051;-48
2021/11/29 04:59:34;;;;;;;;;;;6.40;63.90;;;;;;4363039;32;19981;-44
2021/11/29 05:02:01;;;;;;;;;;;6.40;64.00;;;;;;4358573;32;19990;-44
2021/11/29 05:04:28;;;;;;;;;;;6.40;64.10;;;;;;4359943;32;19965;-45
2021/11/29 05:06:54;;;;;;;;;;;6.50;64.30;;;;;;4359861;32;19978;-47
2021/11/29 05:09:20;;;;;;;;;;;6.50;64.30;;;;;;4359048;32;20543;-46
2021/11/29 05:11:47;;;;;;;;;;;6.50;64.30;;;;;;4370471;32;19970;-46
2021/11/29 05:14:13;;;;;;;;;;;6.60;64.30;;;;;;4374067;32;19977;-48
2021/11/29 05:16:41;;;;;;;;;;;6.60;64.20;;;;;;4374015;32;20069;-48
2021/11/29 05:19:07;;;;;;;;;;;6.70;64.70;;;;;;4374537;32;20047;-47
2021/11/29 05:21:34;;;;;;;;;;;6.70;64.00;;;;;;4345068;32;19966;-48
2021/11/29 05:24:01;;;;;;;;;;;6.80;64.10;;;;;;4359128;32;20059;-49
2021/11/29 05:26:27;;;;;;;;;;;6.80;63.90;;;;;;4359715;32;20505;-50
2021/11/29 05:28:54;;;;;;;;;;;6.80;63.90;;;;;;4359204;32;20134;-52
2021/11/29 05:31:21;;;;;;;;;;;6.90;63.80;;;;;;4359638;32;20388;-47
2021/11/29 05:33:47;;;;;;;;;;;6.90;63.50;;;;;;4358902;32;19969;-49
2021/11/29 05:36:13;;;;;;;;;;;6.80;63.50;;;;;;4358944;32;19993;-50
2021/11/29 05:38:40;;;;;;;;;;;6.80;63.20;;;;;;4359192;32;20376;-50
2021/11/29 05:41:06;;;;;;;;;;;6.70;63.30;;;;;;4358730;32;20075;-51
2021/11/29 05:43:33;;;;;;;;;;;6.70;63.10;;;;;;4359151;32;20054;-47
2021/11/29 05:46:00;;;;;;;;;;;6.60;63.20;;;;;;4357416;32;19978;-49
2021/11/29 05:48:27;;;;;;;;;;;6.50;63.20;;;;;;4347050;32;19975;-46
2021/11/29 05:50:53;;;;;;;;;;;6.40;63.30;;;;;;4344371;32;20046;-49
2021/11/29 05:53:22;;;;;;;;;;;6.40;63.70;;;;;;4343844;32;20461;-51
2021/11/29 05:55:48;;;;;;;;;;;6.40;63.80;;;;;;4343575;32;19990;-49
2021/11/29 05:58:15;;;;;;;;;;;6.40;63.80;;;;;;4343929;32;20484;-47
2021/11/29 06:00:41;;;;;;;;;;;6.30;63.80;;;;;;4343846;33;19983;-46
2021/11/29 06:03:07;;;;;;;;;;;6.30;63.90;;;;;;4343407;32;19978;-55
2021/11/29 06:05:33;;;;;;;;;;;6.30;63.90;;;;;;4343756;32;19983;-45
2021/11/29 06:08:00;;;;;;;;;;;6.30;64.00;;;;;;4342433;33;19975;-49
2021/11/29 06:10:26;;;;;;;;;;;6.30;63.90;;;;;;4342171;33;19983;-50
2021/11/29 06:12:52;;;;;;;;;;;6.40;64.00;;;;;;4343495;32;20050;-50
2021/11/29 06:15:19;;;;;;;;;;;6.40;63.90;;;;;;4343921;32;19974;-50
2021/11/29 06:17:45;;;;;;;;;;;6.40;63.90;;;;;;4343645;32;20044;-51
2021/11/29 06:20:14;;;;;;;;;;;6.40;63.80;;;;;;4343929;32;19962;-51
2021/11/29 06:22:40;;;;;;;;;;;6.40;63.80;;;;;;4355929;32;20055;-50
2021/11/29 06:25:07;;;;;;;;;;;6.50;63.80;;;;;;4344519;32;20041;-50
2021/11/29 06:27:33;;;;;;;;;;;6.50;63.80;;;;;;4358867;32;20006;-50
2021/11/29 06:29:59;;;;;;;;;;;6.50;63.70;;;;;;4358702;32;20415;-50
2021/11/29 06:32:26;;;;;;;;;;;6.50;63.70;;;;;;4358801;32;19970;-50
2021/11/29 06:34:52;;;;;;;;;;;6.50;63.70;;;;;;4344712;32;19958;-52
2021/11/29 06:37:18;;;;;;;;;;;6.60;63.70;;;;;;4358581;32;19966;-49
2021/11/29 06:39:44;;;;;;;;;;;6.60;63.80;;;;;;4344761;32;19963;-48
2021/11/29 06:42:10;;;;;;;;;;;6.60;63.40;;;;;;4344247;32;19982;-49
2021/11/29 06:44:36;;;;;;;;;;;6.60;63.40;;;;;;4358358;32;20004;-49
2021/11/29 06:47:03;;;;;;;;;;;6.60;63.40;;;;;;4361748;32;19973;-47
2021/11/29 06:49:29;;;;;;;;;;;6.60;63.40;;;;;;4372992;32;19977;-48
2021/11/29 06:51:56;;;;;;;;;;;6.60;63.40;;;;;;4373052;32;20576;-51
2021/11/29 06:54:22;;;;;;;;;;;6.60;63.40;;;;;;4373038;32;20371;-48
2021/11/29 06:56:49;;;;;;;;;;;6.60;63.30;;;;;;4372871;32;20421;-47
2021/11/29 06:59:15;;;;;;;;;;;6.70;63.40;;;;;;4373132;32;20030;-49
2021/11/29 07:01:41;;;;;;;;;;;6.60;63.40;;;;;;4372896;32;19969;-46
2021/11/29 07:04:07;;;;;;;;;;;6.70;63.60;;;;;;4372957;32;20043;-46
2021/11/29 07:06:34;;;;;;;;;;;6.80;63.80;;;;;;4373409;32;19989;-48
2021/11/29 07:09:00;;;;;;;;;;;6.90;63.70;;;;;;4372713;32;20008;-48
2021/11/29 07:11:26;;;;;;;;;;;7.00;63.60;;;;;;4325552;33;19990;-45
2021/11/29 07:13:52;;;;;;;;;;;7.10;63.40;;;;;;4326124;33;19967;-50
2021/11/29 07:16:19;;;;;;;;;;;7.20;63.20;;;;;;4326091;33;19967;-49
2021/11/29 07:18:45;;;;;;;;;;;7.20;63.10;;;;;;4325595;33;19971;-47
2021/11/29 07:21:11;;;;;;;;;;;7.30;63.00;;;;;;4325815;33;20153;-47
2021/11/29 07:23:39;;;;;;;;;;;7.40;63.10;;;;;;4325845;33;20167;-45
2021/11/29 07:26:05;;;;;;;;;;;7.40;63.10;;;;;;4328680;33;19998;-48
2021/11/29 07:28:32;;;;;;;;;;;7.50;63.10;;;;;;4328296;33;20002;-47
2021/11/29 07:30:58;;;;;;;;;;;7.60;63.30;;;;;;4328625;33;20325;-49
2021/11/29 07:33:25;;;;;;;;;;;7.70;62.90;;;;;;4328709;33;20444;-47
2021/11/29 07:35:51;;;;;;;;;;;7.80;62.70;;;;;;4328633;33;19986;-47
2021/11/29 07:38:17;;;;;;;;;;;7.90;62.60;;;;;;4328640;33;20375;-49
2021/11/29 07:40:43;;;;;;;;;;;7.90;62.40;;;;;;4328663;33;20419;-47
2021/11/29 07:43:10;;;;;;;;;;;8.00;62.20;;;;;;4328642;33;19967;-48
2021/11/29 07:45:37;;;;;;;;;;;7.90;61.70;;;;;;4329058;33;19974;-51
2021/11/29 07:48:03;;;;;;;;;;;7.90;61.70;;;;;;4323836;33;20396;-48
2021/11/29 07:50:30;;;;;;;;;;;7.90;61.50;;;;;;4345684;32;20383;-50
2021/11/29 07:52:56;;;;;;;;;;;7.80;61.40;;;;;;4345685;33;20060;-48
2021/11/29 07:55:24;;;;;;;;;;;7.80;61.90;;;;;;4345654;33;19984;-49
2021/11/29 07:57:51;;;;;;;;;;;7.70;61.10;;;;;;4332110;33;20029;-52
2021/11/29 08:00:21;;;;;;;;;;;7.60;61.00;;;;;;4345558;33;19970;-49
2021/11/29 08:02:48;;;;;;;;;;;7.50;61.00;;;;;;4345450;33;19967;-49
2021/11/29 08:05:15;;;;;;;;;;;7.50;61.10;;;;;;4331958;33;19981;-48
2021/11/29 08:07:41;;;;;;;;;;;7.40;61.00;;;;;;4345876;32;19966;-43
2021/11/29 08:10:08;;;;;;;;;;;7.30;61.20;;;;;;4345639;32;20015;-46
2021/11/29 08:12:34;;;;;;;;;;;7.30;61.40;;;;;;4331287;33;19966;-44
2021/11/29 08:15:01;;;;;;;;;;;7.20;61.30;;;;;;4345443;33;20017;-45
2021/11/29 08:17:27;;;;;;;;;;;7.20;61.30;;;;;;4345459;32;19963;-46
2021/11/29 08:19:53;;;;;;;;;;;7.20;61.30;;;;;;4345274;33;19966;-46
2021/11/29 08:22:19;;;;;;;;;;;7.10;61.40;;;;;;4345017;32;20023;-45
2021/11/29 08:24:45;;;;;;;;;;;7.20;61.50;;;;;;4345085;33;19963;-45
2021/11/29 08:27:12;;;;;;;;;;;7.20;61.30;;;;;;4344748;32;19963;-43
2021/11/29 08:29:38;;;;;;;;;;;7.20;61.50;;;;;;4345270;32;20379;-46
2021/11/29 08:32:05;;;;;;;;;;;7.20;61.50;;;;;;4344975;32;20387;-45
2021/11/29 08:34:31;;;;;;;;;;;7.30;61.70;;;;;;4344898;32;19990;-42
2021/11/29 08:36:57;;;;;;;;;;;7.30;61.60;;;;;;4344158;32;19966;-44
2021/11/29 08:39:24;;;;;;;;;;;7.40;61.50;;;;;;4344785;32;20097;-43
2021/11/29 08:41:50;;;;;;;;;;;7.50;61.30;;;;;;4345171;33;19979;-45
2021/11/29 08:44:16;;;;;;;;;;;7.50;61.20;;;;;;4344820;32;20416;-46
2021/11/29 08:46:48;;;;;;;;;;;7.60;61.00;;;;;;4347359;32;19965;-40
2021/11/29 08:49:15;;;;;;;;;;;7.60;60.80;;;;;;4374731;32;19981;-43
2021/11/29 08:51:42;;;;;;;;;;;7.60;60.80;;;;;;4374560;32;19964;-44
2021/11/29 08:54:08;;;;;;;;;;;7.60;60.60;;;;;;4360748;32;19976;-48
2021/11/29 08:56:34;;;;;;;;;;;7.70;60.70;;;;;;4374235;32;20038;-44
2021/11/29 08:59:00;;;;;;;;;;;7.70;60.50;;;;;;4374526;32;19977;-46
2021/11/29 09:01:26;;;;;;;;;;;7.70;60.40;;;;;;4374733;32;20062;-44
2021/11/29 09:03:53;;;;;;;;;;;7.60;60.40;;;;;;4374342;32;19978;-50
2021/11/29 09:06:19;;;;;;;;;;;7.60;60.50;;;;;;4360575;32;19960;-50
2021/11/29 09:08:45;;;;;;;;;;;7.60;60.50;;;;;;4374098;32;20101;-47
2021/11/29 09:11:13;;;;;;;;;;;7.50;60.60;;;;;;4360649;32;20039;-46
2021/11/29 09:13:43;;;;;;;;;;;7.50;60.60;;;;;;4374897;32;19993;-46
2021/11/29 09:16:10;;;;;;;;;;;7.40;60.80;;;;;;4361192;32;19985;-50
2021/11/29 09:18:36;;;;;;;;;;;7.30;61.00;;;;;;4374303;32;19962;-42
2021/11/29 09:21:03;;;;;;;;;;;7.20;61.00;;;;;;4373993;32;19966;-47
2021/11/29 09:23:30;;;;;;;;;;;7.10;61.20;;;;;;4360468;32;20034;-46
2021/11/29 09:25:56;;;;;;;;;;;7.10;61.40;;;;;;4374689;32;19973;-48
2021/11/29 09:28:22;;;;;;;;;;;7.00;61.60;;;;;;4374340;32;19966;-48
2021/11/29 09:30:49;;;;;;;;;;;7.00;61.90;;;;;;4360090;32;19958;-47
2021/11/29 09:33:15;;;;;;;;;;;7.00;61.90;;;;;;4374313;32;19954;-44
2021/11/29 09:35:41;;;;;;;;;;;7.00;61.90;;;;;;4374113;32;20541;-48
2021/11/29 09:38:08;;;;;;;;;;;7.00;62.10;;;;;;4374190;32;19993;-48
2021/11/29 09:40:35;;;;;;;;;;;6.90;62.30;;;;;;4374096;32;20053;-47
2021/11/29 09:43:03;;;;;;;;;;;6.90;62.60;;;;;;4373563;32;19958;-49
2021/11/29 09:45:29;;;;;;;;;;;6.90;62.70;;;;;;4373637;32;19993;-46
2021/11/29 09:47:55;;;;;;;;;;;6.90;62.90;;;;;;4364772;32;20038;-46
2021/11/29 09:50:22;;;;;;;;;;;6.90;62.80;;;;;;4358908;32;19974;-46
2021/11/29 09:52:48;;;;;;;;;;;7.00;62.90;;;;;;4345057;32;20471;-46
2021/11/29 09:55:16;;;;;;;;;;;7.00;62.90;;;;;;4359337;32;19974;-49
2021/11/29 09:57:43;;;;;;;;;;;7.00;62.80;;;;;;4359062;32;20087;-47
2021/11/29 10:00:10;;;;;;;;;;;7.10;62.90;;;;;;4358619;32;19954;-46
2021/11/29 10:02:37;;;;;;;;;;;7.10;62.90;;;;;;4358378;32;19998;-48
2021/11/29 10:05:03;;;;;;;;;;;7.10;62.80;;;;;;4358580;32;19967;-45
2021/11/29 10:07:32;;;;;;;;;;;7.20;63.00;;;;;;4358201;32;20347;-45
2021/11/29 10:10:13;;;;;;;;;;;7.20;63.00;;;;;;4358995;32;19978;-46
2021/11/29 10:12:39;;;;;;;;;;;7.20;63.00;;;;;;4326227;33;19971;-45
2021/11/29 10:15:21;;;;;;;;;;;7.20;63.20;;;;;;4326291;33;20427;-45
2021/11/29 10:17:53;;;;;;;;;;;7.20;63.20;;;;;;4326304;33;19966;-40
2021/11/29 10:20:19;;;;;;;;;;;7.20;63.20;;;;;;4326534;33;20436;-42
2021/11/29 10:22:59;;;;;;;;;;;7.30;63.20;;;;;;4314354;33;20013;-46
2021/11/29 10:25:25;;;;;;;;;;;7.30;63.20;;;;;;4326058;33;20435;-48
2021/11/29 10:27:51;;;;;;;;;;;7.30;63.20;;;;;;4326268;33;20070;-48
2021/11/29 10:30:19;;;;;;;;;;;7.40;63.20;;;;;;4326439;33;20415;-44
2021/11/29 10:32:47;;;;;;;;;;;7.30;63.20;;;;;;4326325;33;19967;-45
2021/11/29 10:35:20;;;;;;;;;;;7.40;63.30;;;;;;4326495;33;20017;-45
2021/11/29 10:37:49;;;;;;;;;;;7.40;63.20;;;;;;4326404;33;20411;-45
2021/11/29 10:40:16;;;;;;;;;;;7.40;63.10;;;;;;4326421;33;19982;-44
2021/11/29 10:42:42;;;;;;;;;;;7.40;63.10;;;;;;4325867;33;20444;-44
2021/11/29 10:45:18;;;;;;;;;;;7.30;63.20;;;;;;4326058;33;19986;-43
2021/11/29 10:47:44;;;;;;;;;;;7.30;63.40;;;;;;4326080;33;20363;-47
2021/11/29 10:50:10;;;;;;;;;;;7.30;63.70;;;;;;4331982;32;20429;-45
2021/11/29 10:52:36;;;;;;;;;;;7.30;63.80;;;;;;4372997;32;19962;-44
2021/11/29 10:55:03;;;;;;;;;;;7.40;63.90;;;;;;4372824;32;20485;-44
2021/11/29 10:57:30;;;;;;;;;;;7.40;64.00;;;;;;4359304;32;19977;-45
2021/11/29 10:59:56;;;;;;;;;;;7.50;64.10;;;;;;4372722;32;20491;-44
2021/11/29 11:02:24;;;;;;;;;;;7.50;64.20;;;;;;4373146;32;20041;-44
2021/11/29 11:05:08;;;;;;;;;;;7.60;64.10;;;;;;4372713;32;19976;-43
2021/11/29 11:07:36;;;;;;;;;;;7.70;64.00;;;;;;4373002;32;19962;-45
2021/11/29 11:10:06;;;;;;;;;;;7.80;64.00;;;;;;4373173;32;20054;-46
2021/11/29 11:12:33;;;;;;;;;;;7.80;63.80;;;;;;4372941;32;19966;-44
2021/11/29 11:15:10;;;;;;;;;;;7.90;63.60;;;;;;4372914;32;20057;-45
2021/11/29 11:17:36;;;;;;;;;;;7.90;63.40;;;;;;4372550;32;20373;-50
2021/11/29 11:20:05;;;;;;;;;;;7.90;63.20;;;;;;4372932;32;20445;-44
2021/11/29 11:22:33;;;;;;;;;;;8.00;63.20;;;;;;4372703;32;20000;-42
2021/11/29 11:25:10;;;;;;;;;;;8.00;63.20;;;;;;4372992;32;19985;-44
2021/11/29 11:27:42;;;;;;;;;;;8.00;63.20;;;;;;4372561;32;19977;-42
2021/11/29 11:30:14;;;;;;;;;;;8.00;63.20;;;;;;4359598;32;19981;-45
2021/11/29 11:32:47;;;;;;;;;;;8.00;63.40;;;;;;4372854;32;20393;-45
2021/11/29 11:35:21;;;;;;;;;;;8.00;63.50;;;;;;4373073;32;19978;-46
2021/11/29 11:38:02;;;;;;;;;;;8.00;63.50;;;;;;4373579;32;20086;-47
2021/11/29 11:40:35;;;;;;;;;;;8.00;63.50;;;;;;4372880;32;20426;-45
2021/11/29 11:43:01;;;;;;;;;;;8.00;63.60;;;;;;4372675;32;19965;-44
2021/11/29 11:45:30;;;;;;;;;;;8.10;63.60;;;;;;4358854;32;20071;-43
2021/11/29 11:47:58;;;;;;;;;;;8.20;64.20;;;;;;4363751;32;20389;-43
2021/11/29 11:50:34;;;;;;;;;;;8.20;63.40;;;;;;4358051;32;19989;-43
2021/11/29 11:53:04;;;;;;;;;;;8.30;63.40;;;;;;4357824;32;19962;-45
2021/11/29 11:55:33;;;;;;;;;;;8.40;63.30;;;;;;4344465;32;20016;-43
2021/11/29 11:58:04;;;;;;;;;;;8.40;63.30;;;;;;4357715;32;19970;-43
2021/11/29 12:00:36;;;;;;;;;;;8.40;63.90;;;;;;4344046;32;20026;-42
2021/11/29 12:03:11;;;;;;;;;;;8.50;63.20;;;;;;4343781;32;19958;-44
2021/11/29 12:05:43;;;;;;;;;;;8.50;63.00;;;;;;4357650;32;19994;-43
2021/11/29 12:08:47;;;;;;;;;;;8.50;63.00;;;;;;4357974;32;19968;-43
2021/11/29 12:11:33;;;;;;;;;;;8.50;63.00;;;;;;4359408;32;19998;-44
2021/11/29 12:14:23;;;;;;;;;;;8.50;63.10;;;;;;4360256;32;19967;-40
2021/11/29 12:16:51;;;;;;;;;;;8.50;63.00;;;;;;4360774;32;19968;-44
2021/11/29 12:19:37;;;;;;;;;;;8.50;63.20;;;;;;4360187;32;19982;-44
2021/11/29 12:22:26;;;;;;;;;;;8.50;63.30;;;;;;4359992;32;20420;-43
2021/11/29 12:25:17;;;;;;;;;;;8.50;63.30;;;;;;4360106;32;19973;-43
2021/11/29 12:27:57;;;;;;;;;;;8.50;63.30;;;;;;4360302;32;20370;-42
2021/11/29 12:30:42;;;;;;;;;;;8.50;63.40;;;;;;4346358;32;20451;-42
2021/11/29 12:33:11;;;;;;;;;;;8.50;63.40;;;;;;4347060;32;20423;-43
2021/11/29 12:35:39;;;;;;;;;;;8.50;63.40;;;;;;4360047;32;20035;-43
2021/11/29 12:38:10;;;;;;;;;;;8.50;63.40;;;;;;4346180;32;20123;-42
2021/11/29 12:41:06;;;;;;;;;;;8.50;63.40;;;;;;4359618;32;20390;-42
2021/11/29 12:43:49;;;;;;;;;;;8.50;63.40;;;;;;4348111;32;19955;-42
2021/11/29 12:46:29;;;;;;;;;;;8.50;63.30;;;;;;4359515;32;20495;-43
2021/11/29 12:49:02;;;;;;;;;;;8.50;63.40;;;;;;4343583;33;20035;-43
2021/11/29 12:51:54;;;;;;;;;;;8.40;63.40;;;;;;4344964;33;19970;-41
2021/11/29 12:54:38;;;;;;;;;;;8.40;63.40;;;;;;4331699;33;20422;-43
2021/11/29 12:57:24;;;;;;;;;;;8.40;63.20;;;;;;4344772;33;20052;-44
2021/11/29 12:59:57;;;;;;;;;;;8.30;63.30;;;;;;4330702;33;20081;-42
2021/11/29 13:02:43;;;;;;;;;;;8.30;63.20;;;;;;4344942;33;20494;-45
2021/11/29 13:05:25;;;;;;;;;;;8.30;63.30;;;;;;4344551;33;19973;-42
2021/11/29 13:08:08;;;;;;;;;;;8.30;63.30;;;;;;4344481;33;19996;-43
2021/11/29 13:10:50;;;;;;;;;;;8.20;63.40;;;;;;4344892;32;19974;-42
2021/11/29 13:13:23;;;;;;;;;;;8.20;63.40;;;;;;4344622;33;19974;-42
2021/11/29 13:15:51;;;;;;;;;;;8.20;63.60;;;;;;4344677;33;20001;-41
2021/11/29 13:18:48;;;;;;;;;;;8.20;63.60;;;;;;4330845;33;19986;-45
2021/11/29 13:21:20;;;;;;;;;;;8.10;63.60;;;;;;4343734;32;20496;-47
2021/11/29 13:23:53;;;;;;;;;;;8.10;63.80;;;;;;4344455;33;20048;-45
2021/11/29 13:26:19;;;;;;;;;;;8.10;63.90;;;;;;4344721;33;19968;-46
2021/11/29 13:28:48;;;;;;;;;;;8.10;63.90;;;;;;4344076;33;19998;-43
2021/11/29 13:31:15;;;;;;;;;;;8.20;63.90;;;;;;4344141;33;20067;-45
2021/11/29 13:33:41;;;;;;;;;;;8.30;63.90;;;;;;4343953;33;20501;-45
2021/11/29 13:36:09;;;;;;;;;;;8.20;63.70;;;;;;4344187;33;19973;-43
2021/11/29 13:38:37;;;;;;;;;;;8.30;63.60;;;;;;4344246;33;19970;-44
2021/11/29 13:41:16;;;;;;;;;;;8.30;63.50;;;;;;4344091;33;20038;-44
2021/11/29 13:43:42;;;;;;;;;;;8.30;63.30;;;;;;4344180;33;20040;-46
2021/11/29 13:46:13;;;;;;;;;;;8.40;63.30;;;;;;4344059;33;20102;-45
2021/11/29 13:48:40;;;;;;;;;;;8.40;63.30;;;;;;4370162;32;20000;-43
2021/11/29 13:51:06;;;;;;;;;;;8.40;63.20;;;;;;4373644;32;20390;-44
2021/11/29 13:53:40;;;;;;;;;;;8.50;63.20;;;;;;4373405;32;19965;-43
2021/11/29 13:56:07;;;;;;;;;;;8.50;63.20;;;;;;4360089;32;20072;-41
2021/11/29 13:58:34;;;;;;;;;;;8.60;63.00;;;;;;4373525;32;19962;-45
2021/11/29 14:01:11;;;;;;;;;;;8.60;62.90;;;;;;4373680;32;19969;-43
2021/11/29 14:03:46;;;;;;;;;;;8.60;62.70;;;;;;4373794;32;19970;-44
2021/11/29 14:06:22;;;;;;;;;;;8.70;62.70;;;;;;4373395;32;20344;-43
2021/11/29 14:08:49;;;;;;;;;;;8.70;62.60;;;;;;4373509;32;19962;-44
2021/11/29 14:11:17;;;;;;;;;;;8.70;62.50;;;;;;4373407;32;19972;-44
2021/11/29 14:13:54;;;;;;;;;;;8.80;62.20;;;;;;4373752;32;19996;-43
2021/11/29 14:16:36;;;;;;;;;;;8.80;62.20;;;;;;4326243;33;19979;-43
2021/11/29 14:19:10;;;;;;;;;;;8.80;61.90;;;;;;4326193;33;19971;-43
2021/11/29 14:21:42;;;;;;;;;;;8.80;62.10;;;;;;4325820;33;20139;-42
2021/11/29 14:24:12;;;;;;;;;;;8.80;62.00;;;;;;4325775;33;20069;-44
2021/11/29 14:26:43;;;;;;;;;;;8.80;61.90;;;;;;4325732;33;20139;-44
2021/11/29 14:29:20;;;;;;;;;;;8.90;61.90;;;;;;4314376;33;19967;-42
2021/11/29 14:31:52;;;;;;;;;;;8.90;61.70;;;;;;4314426;33;20451;-44
2021/11/29 14:34:21;;;;;;;;;;;8.80;61.50;;;;;;4313745;33;19977;-46
2021/11/29 14:36:51;;;;;;;;;;;8.90;61.80;;;;;;4325931;33;19979;-41
2021/11/29 14:39:28;;;;;;;;;;;8.80;61.70;;;;;;4325859;33;20060;-41